sensor_id;sensor_type;location;lat;lon;timestamp;temperature;humidity
53802;DHT22;39709;53.334;6.534;2023-08-20T00:00:56;16.40;99.90
53802;DHT22;39709;53.334;6.534;2023-08-20T00:03:22;16.30;99.90
53802;DHT22;39709;53.334;6.534;2023-08-20T00:05:48;16.30;99.90
53802;DHT22;39709;53.334;6.534;2023-08-20T00:08:13;16.30;99.90
53802;DHT22;39709;53.334;6.534;2023-08-20T00:10:39;16.40;99.90
53802;DHT22;39709;53.334;6.534;2023-08-20T00:13:05;16.40;99.90
53802;DHT22;39709;53.334;6.534;2023-08-20T00:15:31;16.40;99.90
53802;DHT22;39709;53.334;6.534;2023-08-20T00:17:57;16.40;99.90
53802;DHT22;39709;53.334;6.534;2023-08-20T00:20:24;16.40;99.90
53802;DHT22;39709;53.334;6.534;2023-08-20T00:22:51;16.40;99.90
53802;DHT22;39709;53.334;6.534;2023-08-20T00:25:17;16.50;99.90
53802;DHT22;39709;53.334;6.534;2023-08-20T00:27:43;16.50;99.90
53802;DHT22;39709;53.334;6.534;2023-08-20T00:30:10;16.50;99.90
53802;DHT22;39709;53.334;6.534;2023-08-20T00:32:37;16.40;99.90
53802;DHT22;39709;53.334;6.534;2023-08-20T00:35:03;16.40;99.90
53802;DHT22;39709;53.334;6.534;2023-08-20T00:37:30;16.40;99.90
53802;DHT22;39709;53.334;6.534;2023-08-20T00:39:56;16.50;99.90
53802;DHT22;39709;53.334;6.534;2023-08-20T00:42:23;16.40;99.90
53802;DHT22;39709;53.334;6.534;2023-08-20T00:44:51;16.40;99.90
53802;DHT22;39709;53.334;6.534;2023-08-20T00:47:18;16.50;99.90
53802;DHT22;39709;53.334;6.534;2023-08-20T00:49:44;16.40;99.90
53802;DHT22;39709;53.334;6.534;2023-08-20T00:52:12;16.40;99.90
53802;DHT22;39709;53.334;6.534;2023-08-20T00:54:40;16.40;99.90
53802;DHT22;39709;53.334;6.534;2023-08-20T00:57:07;16.30;99.90
53802;DHT22;39709;53.334;6.534;2023-08-20T00:59:34;16.30;99.90
53802;DHT22;39709;53.334;6.534;2023-08-20T01:02:00;16.30;99.90
53802;DHT22;39709;53.334;6.534;2023-08-20T01:04:26;16.20;99.90
53802;DHT22;39709;53.334;6.534;2023-08-20T01:12:17;16.20;99.90
53802;DHT22;39709;53.334;6.534;2023-08-20T01:14:43;16.20;99.90
53802;DHT22;39709;53.334;6.534;2023-08-20T01:17:08;16.20;99.90
53802;DHT22;39709;53.334;6.534;2023-08-20T01:19:34;16.20;99.90
53802;DHT22;39709;53.334;6.534;2023-08-20T01:28:22;16.10;99.90
53802;DHT22;39709;53.334;6.534;2023-08-20T01:30:49;16.10;99.90
53802;DHT22;39709;53.334;6.534;2023-08-20T01:33:15;16.10;99.90
53802;DHT22;39709;53.334;6.534;2023-08-20T01:35:41;16.00;99.90
53802;DHT22;39709;53.334;6.534;2023-08-20T01:38:07;15.90;99.90
53802;DHT22;39709;53.334;6.534;2023-08-20T01:40:33;15.90;99.90
53802;DHT22;39709;53.334;6.534;2023-08-20T01:42:59;15.90;99.90
53802;DHT22;39709;53.334;6.534;2023-08-20T01:45:25;15.80;99.90
53802;DHT22;39709;53.334;6.534;2023-08-20T01:47:52;15.80;99.90
53802;DHT22;39709;53.334;6.534;2023-08-20T01:50:18;15.80;99.90
53802;DHT22;39709;53.334;6.534;2023-08-20T01:52:44;15.80;99.90
53802;DHT22;39709;53.334;6.534;2023-08-20T01:55:12;15.80;99.90
53802;DHT22;39709;53.334;6.534;2023-08-20T01:57:38;15.80;99.90
53802;DHT22;39709;53.334;6.534;2023-08-20T02:00:04;15.80;99.90
53802;DHT22;39709;53.334;6.534;2023-08-20T02:02:33;15.80;99.90
53802;DHT22;39709;53.334;6.534;2023-08-20T02:04:59;15.80;99.90
53802;DHT22;39709;53.334;6.534;2023-08-20T02:07:25;15.80;99.90
53802;DHT22;39709;53.334;6.534;2023-08-20T02:09:51;15.80;99.90
53802;DHT22;39709;53.334;6.534;2023-08-20T02:12:17;15.70;99.90
53802;DHT22;39709;53.334;6.534;2023-08-20T02:14:42;15.70;99.90
53802;DHT22;39709;53.334;6.534;2023-08-20T02:17:08;15.70;99.90
53802;DHT22;39709;53.334;6.534;2023-08-20T02:19:34;15.70;99.90
53802;DHT22;39709;53.334;6.534;2023-08-20T02:21:59;15.70;99.90
53802;DHT22;39709;53.334;6.534;2023-08-20T02:24:25;15.70;99.90
53802;DHT22;39709;53.334;6.534;2023-08-20T02:26:51;15.70;99.90
53802;DHT22;39709;53.334;6.534;2023-08-20T02:29:17;15.70;99.90
53802;DHT22;39709;53.334;6.534;2023-08-20T02:31:42;15.60;99.90
53802;DHT22;39709;53.334;6.534;2023-08-20T02:34:08;15.70;99.90
53802;DHT22;39709;53.334;6.534;2023-08-20T02:36:34;15.70;99.90
53802;DHT22;39709;53.334;6.534;2023-08-20T02:38:59;15.60;99.90
53802;DHT22;39709;53.334;6.534;2023-08-20T02:41:25;15.60;99.90
53802;DHT22;39709;53.334;6.534;2023-08-20T02:43:51;15.50;99.90
53802;DHT22;39709;53.334;6.534;2023-08-20T02:46:16;15.40;99.90
53802;DHT22;39709;53.334;6.534;2023-08-20T02:48:42;15.40;99.90
53802;DHT22;39709;53.334;6.534;2023-08-20T02:51:08;15.30;99.90
53802;DHT22;39709;53.334;6.534;2023-08-20T02:53:33;15.30;99.90
53802;DHT22;39709;53.334;6.534;2023-08-20T02:55:59;15.30;99.90
53802;DHT22;39709;53.334;6.534;2023-08-20T02:58:25;15.20;99.90
53802;DHT22;39709;53.334;6.534;2023-08-20T03:00:50;15.20;99.90
53802;DHT22;39709;53.334;6.534;2023-08-20T03:03:16;15.20;99.90
53802;DHT22;39709;53.334;6.534;2023-08-20T03:05:42;15.30;99.90
53802;DHT22;39709;53.334;6.534;2023-08-20T03:08:08;15.30;99.90
53802;DHT22;39709;53.334;6.534;2023-08-20T03:10:34;15.30;99.90
53802;DHT22;39709;53.334;6.534;2023-08-20T03:13:01;15.30;99.90
53802;DHT22;39709;53.334;6.534;2023-08-20T03:15:30;15.30;99.90
53802;DHT22;39709;53.334;6.534;2023-08-20T03:17:56;15.30;99.90
53802;DHT22;39709;53.334;6.534;2023-08-20T03:20:22;15.40;99.90
53802;DHT22;39709;53.334;6.534;2023-08-20T03:22:48;15.30;99.90
53802;DHT22;39709;53.334;6.534;2023-08-20T03:25:14;15.40;99.90
53802;DHT22;39709;53.334;6.534;2023-08-20T03:27:40;15.40;99.90
53802;DHT22;39709;53.334;6.534;2023-08-20T03:30:06;15.40;99.90
53802;DHT22;39709;53.334;6.534;2023-08-20T03:32:32;15.40;99.90
53802;DHT22;39709;53.334;6.534;2023-08-20T03:34:58;15.40;99.90
53802;DHT22;39709;53.334;6.534;2023-08-20T03:37:25;15.40;99.90
53802;DHT22;39709;53.334;6.534;2023-08-20T03:39:51;15.30;99.90
53802;DHT22;39709;53.334;6.534;2023-08-20T03:42:17;15.20;99.90
53802;DHT22;39709;53.334;6.534;2023-08-20T03:44:43;15.10;99.90
53802;DHT22;39709;53.334;6.534;2023-08-20T03:47:09;15.10;99.90
53802;DHT22;39709;53.334;6.534;2023-08-20T03:49:34;15.00;99.90
53802;DHT22;39709;53.334;6.534;2023-08-20T03:52:00;15.10;99.90
53802;DHT22;39709;53.334;6.534;2023-08-20T03:54:28;15.10;99.90
53802;DHT22;39709;53.334;6.534;2023-08-20T03:56:54;15.10;99.90
53802;DHT22;39709;53.334;6.534;2023-08-20T03:59:20;15.10;99.90
53802;DHT22;39709;53.334;6.534;2023-08-20T04:01:46;15.20;99.90
53802;DHT22;39709;53.334;6.534;2023-08-20T04:04:11;15.20;99.90
53802;DHT22;39709;53.334;6.534;2023-08-20T04:06:37;15.20;99.90
53802;DHT22;39709;53.334;6.534;2023-08-20T04:09:03;15.10;99.90
53802;DHT22;39709;53.334;6.534;2023-08-20T04:11:29;15.10;99.90
53802;DHT22;39709;53.334;6.534;2023-08-20T04:13:54;15.10;99.90
53802;DHT22;39709;53.334;6.534;2023-08-20T04:16:20;15.10;99.90
53802;DHT22;39709;53.334;6.534;2023-08-20T04:18:45;15.10;99.90
53802;DHT22;39709;53.334;6.534;2023-08-20T04:21:11;15.00;99.90
53802;DHT22;39709;53.334;6.534;2023-08-20T04:23:37;15.10;99.90
53802;DHT22;39709;53.334;6.534;2023-08-20T04:26:02;15.00;99.90
53802;DHT22;39709;53.334;6.534;2023-08-20T04:28:28;15.10;99.90
53802;DHT22;39709;53.334;6.534;2023-08-20T04:30:54;15.00;99.90
53802;DHT22;39709;53.334;6.534;2023-08-20T04:33:20;15.00;99.90
53802;DHT22;39709;53.334;6.534;2023-08-20T04:35:48;15.10;99.90
53802;DHT22;39709;53.334;6.534;2023-08-20T04:38:15;15.10;99.90
53802;DHT22;39709;53.334;6.534;2023-08-20T04:40:41;15.00;99.90
53802;DHT22;39709;53.334;6.534;2023-08-20T04:43:06;15.10;99.90
53802;DHT22;39709;53.334;6.534;2023-08-20T04:45:32;15.00;99.90
53802;DHT22;39709;53.334;6.534;2023-08-20T04:47:59;15.00;99.90
53802;DHT22;39709;53.334;6.534;2023-08-20T04:50:24;15.10;99.90
53802;DHT22;39709;53.334;6.534;2023-08-20T04:52:50;15.10;99.90
53802;DHT22;39709;53.334;6.534;2023-08-20T04:55:16;15.10;99.90
53802;DHT22;39709;53.334;6.534;2023-08-20T04:57:41;15.10;99.90
53802;DHT22;39709;53.334;6.534;2023-08-20T05:00:08;15.10;99.90
53802;DHT22;39709;53.334;6.534;2023-08-20T05:02:35;15.20;99.90
53802;DHT22;39709;53.334;6.534;2023-08-20T05:05:02;15.20;99.90
53802;DHT22;39709;53.334;6.534;2023-08-20T05:07:27;15.20;99.90
53802;DHT22;39709;53.334;6.534;2023-08-20T05:09:53;15.30;99.90
53802;DHT22;39709;53.334;6.534;2023-08-20T05:12:19;15.30;99.90
53802;DHT22;39709;53.334;6.534;2023-08-20T05:14:45;15.30;99.90
53802;DHT22;39709;53.334;6.534;2023-08-20T05:17:10;15.30;99.90
53802;DHT22;39709;53.334;6.534;2023-08-20T05:19:36;15.40;99.90
53802;DHT22;39709;53.334;6.534;2023-08-20T05:22:01;15.40;99.90
53802;DHT22;39709;53.334;6.534;2023-08-20T05:24:27;15.40;99.90
53802;DHT22;39709;53.334;6.534;2023-08-20T05:29:31;15.50;99.90
53802;DHT22;39709;53.334;6.534;2023-08-20T05:31:57;15.50;99.90
53802;DHT22;39709;53.334;6.534;2023-08-20T05:34:23;15.60;99.90
53802;DHT22;39709;53.334;6.534;2023-08-20T05:36:48;15.60;99.90
53802;DHT22;39709;53.334;6.534;2023-08-20T05:39:14;15.70;99.90
53802;DHT22;39709;53.334;6.534;2023-08-20T05:41:40;15.70;99.90
53802;DHT22;39709;53.334;6.534;2023-08-20T05:44:05;15.80;99.90
53802;DHT22;39709;53.334;6.534;2023-08-20T05:46:31;15.90;99.90
53802;DHT22;39709;53.334;6.534;2023-08-20T05:48:57;16.00;99.90
53802;DHT22;39709;53.334;6.534;2023-08-20T05:51:22;16.00;99.90
53802;DHT22;39709;53.334;6.534;2023-08-20T05:53:48;16.10;99.90
53802;DHT22;39709;53.334;6.534;2023-08-20T05:56:14;16.30;99.90
53802;DHT22;39709;53.334;6.534;2023-08-20T05:58:39;16.30;99.90
53802;DHT22;39709;53.334;6.534;2023-08-20T06:01:05;16.40;99.90
53802;DHT22;39709;53.334;6.534;2023-08-20T06:03:31;16.40;99.90
53802;DHT22;39709;53.334;6.534;2023-08-20T06:05:57;16.50;99.90
53802;DHT22;39709;53.334;6.534;2023-08-20T06:08:23;16.60;99.90
53802;DHT22;39709;53.334;6.534;2023-08-20T06:10:50;16.70;99.90
53802;DHT22;39709;53.334;6.534;2023-08-20T06:13:15;16.80;99.90
53802;DHT22;39709;53.334;6.534;2023-08-20T06:15:41;16.90;99.90
53802;DHT22;39709;53.334;6.534;2023-08-20T06:18:07;16.90;99.90
53802;DHT22;39709;53.334;6.534;2023-08-20T06:20:32;17.00;99.90
53802;DHT22;39709;53.334;6.534;2023-08-20T06:22:58;17.10;99.90
53802;DHT22;39709;53.334;6.534;2023-08-20T06:25:24;17.20;99.90
53802;DHT22;39709;53.334;6.534;2023-08-20T06:27:49;17.30;99.90
53802;DHT22;39709;53.334;6.534;2023-08-20T06:30:15;17.40;99.90
53802;DHT22;39709;53.334;6.534;2023-08-20T06:32:42;17.50;99.90
53802;DHT22;39709;53.334;6.534;2023-08-20T06:35:08;17.50;99.90
53802;DHT22;39709;53.334;6.534;2023-08-20T06:37:35;17.60;99.90
53802;DHT22;39709;53.334;6.534;2023-08-20T06:40:01;17.70;99.90
53802;DHT22;39709;53.334;6.534;2023-08-20T06:42:26;17.80;99.90
53802;DHT22;39709;53.334;6.534;2023-08-20T06:44:52;17.80;99.90
53802;DHT22;39709;53.334;6.534;2023-08-20T06:47:18;17.90;99.90
53802;DHT22;39709;53.334;6.534;2023-08-20T06:49:43;18.00;99.90
53802;DHT22;39709;53.334;6.534;2023-08-20T06:52:09;18.10;99.90
53802;DHT22;39709;53.334;6.534;2023-08-20T06:54:35;18.20;99.90
53802;DHT22;39709;53.334;6.534;2023-08-20T06:57:00;18.30;99.90
53802;DHT22;39709;53.334;6.534;2023-08-20T06:59:26;18.30;99.90
53802;DHT22;39709;53.334;6.534;2023-08-20T07:01:52;18.40;99.90
53802;DHT22;39709;53.334;6.534;2023-08-20T07:04:18;18.50;99.90
53802;DHT22;39709;53.334;6.534;2023-08-20T07:06:44;18.60;99.90
53802;DHT22;39709;53.334;6.534;2023-08-20T07:09:09;18.70;99.90
53802;DHT22;39709;53.334;6.534;2023-08-20T07:11:35;18.80;99.90
53802;DHT22;39709;53.334;6.534;2023-08-20T07:14:01;18.90;99.90
53802;DHT22;39709;53.334;6.534;2023-08-20T07:16:26;18.90;99.90
53802;DHT22;39709;53.334;6.534;2023-08-20T07:18:52;19.00;99.90
53802;DHT22;39709;53.334;6.534;2023-08-20T07:21:18;19.10;99.90
53802;DHT22;39709;53.334;6.534;2023-08-20T07:23:44;19.10;99.90
53802;DHT22;39709;53.334;6.534;2023-08-20T07:26:11;19.20;99.90
53802;DHT22;39709;53.334;6.534;2023-08-20T07:28:40;19.30;99.90
53802;DHT22;39709;53.334;6.534;2023-08-20T07:31:29;19.40;99.90
53802;DHT22;39709;53.334;6.534;2023-08-20T07:33:56;19.50;99.90
53802;DHT22;39709;53.334;6.534;2023-08-20T07:36:24;19.60;99.90
53802;DHT22;39709;53.334;6.534;2023-08-20T07:38:54;19.70;99.90
53802;DHT22;39709;53.334;6.534;2023-08-20T07:41:20;19.70;99.90
53802;DHT22;39709;53.334;6.534;2023-08-20T07:43:47;19.80;99.90
53802;DHT22;39709;53.334;6.534;2023-08-20T07:46:13;19.90;99.90
53802;DHT22;39709;53.334;6.534;2023-08-20T07:48:39;19.90;99.90
53802;DHT22;39709;53.334;6.534;2023-08-20T07:51:05;20.00;99.90
53802;DHT22;39709;53.334;6.534;2023-08-20T07:53:32;20.10;99.90
53802;DHT22;39709;53.334;6.534;2023-08-20T07:55:59;20.10;99.90
53802;DHT22;39709;53.334;6.534;2023-08-20T07:58:25;20.20;99.90
53802;DHT22;39709;53.334;6.534;2023-08-20T08:00:51;20.30;99.90
53802;DHT22;39709;53.334;6.534;2023-08-20T08:03:17;20.40;99.90
53802;DHT22;39709;53.334;6.534;2023-08-20T08:05:47;20.40;99.90
53802;DHT22;39709;53.334;6.534;2023-08-20T08:08:14;20.50;99.90
53802;DHT22;39709;53.334;6.534;2023-08-20T08:10:40;20.50;99.90
53802;DHT22;39709;53.334;6.534;2023-08-20T08:13:06;20.50;99.90
53802;DHT22;39709;53.334;6.534;2023-08-20T08:15:32;20.60;99.90
53802;DHT22;39709;53.334;6.534;2023-08-20T08:17:57;20.60;99.90
53802;DHT22;39709;53.334;6.534;2023-08-20T08:20:23;20.70;99.90
53802;DHT22;39709;53.334;6.534;2023-08-20T08:22:49;20.70;99.90
53802;DHT22;39709;53.334;6.534;2023-08-20T08:25:14;20.80;99.90
53802;DHT22;39709;53.334;6.534;2023-08-20T08:27:40;20.80;99.90
53802;DHT22;39709;53.334;6.534;2023-08-20T08:30:06;20.90;99.90
53802;DHT22;39709;53.334;6.534;2023-08-20T08:32:32;21.00;99.90
53802;DHT22;39709;53.334;6.534;2023-08-20T08:34:58;21.10;99.90
53802;DHT22;39709;53.334;6.534;2023-08-20T08:37:24;21.00;99.90
53802;DHT22;39709;53.334;6.534;2023-08-20T08:39:49;21.10;99.90
53802;DHT22;39709;53.334;6.534;2023-08-20T08:42:16;21.20;99.90
53802;DHT22;39709;53.334;6.534;2023-08-20T08:44:43;21.20;99.90
53802;DHT22;39709;53.334;6.534;2023-08-20T08:47:10;21.20;99.90
53802;DHT22;39709;53.334;6.534;2023-08-20T08:49:37;21.30;99.90
53802;DHT22;39709;53.334;6.534;2023-08-20T08:52:04;21.40;99.90
53802;DHT22;39709;53.334;6.534;2023-08-20T08:54:30;21.50;99.90
53802;DHT22;39709;53.334;6.534;2023-08-20T08:56:57;21.50;99.90
53802;DHT22;39709;53.334;6.534;2023-08-20T08:59:23;21.60;99.90
53802;DHT22;39709;53.334;6.534;2023-08-20T09:01:49;21.70;99.90
53802;DHT22;39709;53.334;6.534;2023-08-20T09:04:15;21.80;99.90
53802;DHT22;39709;53.334;6.534;2023-08-20T09:06:51;21.90;99.90
53802;DHT22;39709;53.334;6.534;2023-08-20T09:09:18;22.10;99.90
53802;DHT22;39709;53.334;6.534;2023-08-20T09:11:45;22.10;99.90
53802;DHT22;39709;53.334;6.534;2023-08-20T09:14:23;22.30;99.90
53802;DHT22;39709;53.334;6.534;2023-08-20T09:16:58;22.30;99.90
53802;DHT22;39709;53.334;6.534;2023-08-20T09:19:24;22.40;99.90
53802;DHT22;39709;53.334;6.534;2023-08-20T09:21:49;22.60;99.80
53802;DHT22;39709;53.334;6.534;2023-08-20T09:24:26;22.50;99.70
53802;DHT22;39709;53.334;6.534;2023-08-20T09:26:57;22.40;99.90
53802;DHT22;39709;53.334;6.534;2023-08-20T09:29:24;22.40;99.90
53802;DHT22;39709;53.334;6.534;2023-08-20T09:31:50;22.50;99.90
53802;DHT22;39709;53.334;6.534;2023-08-20T09:34:25;22.50;99.30
53802;DHT22;39709;53.334;6.534;2023-08-20T09:36:51;22.40;99.90
53802;DHT22;39709;53.334;6.534;2023-08-20T09:39:17;22.40;99.90
53802;DHT22;39709;53.334;6.534;2023-08-20T09:41:44;22.60;97.90
53802;DHT22;39709;53.334;6.534;2023-08-20T09:44:13;22.70;96.70
53802;DHT22;39709;53.334;6.534;2023-08-20T09:46:40;22.70;96.30
53802;DHT22;39709;53.334;6.534;2023-08-20T09:49:10;22.50;97.50
53802;DHT22;39709;53.334;6.534;2023-08-20T09:51:37;22.60;98.30
53802;DHT22;39709;53.334;6.534;2023-08-20T09:54:17;22.70;97.80
53802;DHT22;39709;53.334;6.534;2023-08-20T09:56:46;22.80;96.00
53802;DHT22;39709;53.334;6.534;2023-08-20T09:59:16;22.80;95.50
53802;DHT22;39709;53.334;6.534;2023-08-20T10:01:43;22.80;95.60
53802;DHT22;39709;53.334;6.534;2023-08-20T10:04:10;22.70;95.30
53802;DHT22;39709;53.334;6.534;2023-08-20T10:06:37;22.70;95.60
53802;DHT22;39709;53.334;6.534;2023-08-20T10:09:03;22.70;96.40
53802;DHT22;39709;53.334;6.534;2023-08-20T10:11:29;22.90;94.70
53802;DHT22;39709;53.334;6.534;2023-08-20T10:13:55;22.90;93.70
53802;DHT22;39709;53.334;6.534;2023-08-20T10:16:21;22.90;92.20
53802;DHT22;39709;53.334;6.534;2023-08-20T10:18:47;23.00;92.80
53802;DHT22;39709;53.334;6.534;2023-08-20T10:21:13;23.10;92.90
53802;DHT22;39709;53.334;6.534;2023-08-20T10:23:42;23.20;91.20
53802;DHT22;39709;53.334;6.534;2023-08-20T10:26:09;23.20;91.40
53802;DHT22;39709;53.334;6.534;2023-08-20T10:28:36;23.30;91.20
53802;DHT22;39709;53.334;6.534;2023-08-20T10:31:12;23.40;89.60
53802;DHT22;39709;53.334;6.534;2023-08-20T10:36:19;23.30;90.40
53802;DHT22;39709;53.334;6.534;2023-08-20T10:38:55;23.40;90.20
53802;DHT22;39709;53.334;6.534;2023-08-20T10:41:28;23.40;88.40
53802;DHT22;39709;53.334;6.534;2023-08-20T10:43:58;23.40;85.70
53802;DHT22;39709;53.334;6.534;2023-08-20T10:46:25;23.40;83.20
53802;DHT22;39709;53.334;6.534;2023-08-20T10:48:58;23.40;82.10
53802;DHT22;39709;53.334;6.534;2023-08-20T10:51:36;23.40;85.40
53802;DHT22;39709;53.334;6.534;2023-08-20T10:54:06;23.40;80.40
53802;DHT22;39709;53.334;6.534;2023-08-20T10:56:53;23.40;81.80
53802;DHT22;39709;53.334;6.534;2023-08-20T10:59:27;23.50;78.40
53802;DHT22;39709;53.334;6.534;2023-08-20T11:01:55;23.50;81.20
53802;DHT22;39709;53.334;6.534;2023-08-20T11:04:28;23.60;77.70
53802;DHT22;39709;53.334;6.534;2023-08-20T11:06:55;23.70;78.90
53802;DHT22;39709;53.334;6.534;2023-08-20T11:09:22;23.70;76.30
53802;DHT22;39709;53.334;6.534;2023-08-20T11:11:49;23.80;71.10
53802;DHT22;39709;53.334;6.534;2023-08-20T11:14:15;23.90;63.90
53802;DHT22;39709;53.334;6.534;2023-08-20T11:16:42;24.00;65.80
53802;DHT22;39709;53.334;6.534;2023-08-20T11:19:09;24.10;68.00
53802;DHT22;39709;53.334;6.534;2023-08-20T11:21:37;24.20;64.20
53802;DHT22;39709;53.334;6.534;2023-08-20T11:24:03;24.10;52.00
53802;DHT22;39709;53.334;6.534;2023-08-20T11:26:29;24.00;60.10
53802;DHT22;39709;53.334;6.534;2023-08-20T11:28:55;23.90;59.50
53802;DHT22;39709;53.334;6.534;2023-08-20T11:31:21;23.90;65.80
53802;DHT22;39709;53.334;6.534;2023-08-20T11:33:47;23.90;65.20
53802;DHT22;39709;53.334;6.534;2023-08-20T11:36:19;24.10;59.10
53802;DHT22;39709;53.334;6.534;2023-08-20T11:38:52;24.20;53.20
53802;DHT22;39709;53.334;6.534;2023-08-20T11:41:21;24.20;51.50
53802;DHT22;39709;53.334;6.534;2023-08-20T11:43:48;24.10;47.60
53802;DHT22;39709;53.334;6.534;2023-08-20T11:46:14;24.20;32.70
53802;DHT22;39709;53.334;6.534;2023-08-20T11:51:26;24.40;45.40
53802;DHT22;39709;53.334;6.534;2023-08-20T11:53:52;24.40;50.80
53802;DHT22;39709;53.334;6.534;2023-08-20T11:56:18;24.40;53.50
53802;DHT22;39709;53.334;6.534;2023-08-20T11:58:49;24.40;32.60
53802;DHT22;39709;53.334;6.534;2023-08-20T12:01:14;24.40;21.80
53802;DHT22;39709;53.334;6.534;2023-08-20T12:03:40;24.40;16.30
53802;DHT22;39709;53.334;6.534;2023-08-20T12:06:18;24.50;24.20
53802;DHT22;39709;53.334;6.534;2023-08-20T12:08:45;24.50;4.70
53802;DHT22;39709;53.334;6.534;2023-08-20T12:11:10;24.50;1.00
53802;DHT22;39709;53.334;6.534;2023-08-20T12:13:36;24.60;2.10
53802;DHT22;39709;53.334;6.534;2023-08-20T12:16:02;24.60;1.00
53802;DHT22;39709;53.334;6.534;2023-08-20T12:18:28;24.70;1.00
53802;DHT22;39709;53.334;6.534;2023-08-20T12:20:55;24.70;1.00
53802;DHT22;39709;53.334;6.534;2023-08-20T12:23:21;24.80;8.10
53802;DHT22;39709;53.334;6.534;2023-08-20T12:25:50;24.90;1.00
53802;DHT22;39709;53.334;6.534;2023-08-20T12:28:16;24.90;1.00
53802;DHT22;39709;53.334;6.534;2023-08-20T12:30:43;25.00;1.00
53802;DHT22;39709;53.334;6.534;2023-08-20T12:33:09;25.00;1.00
53802;DHT22;39709;53.334;6.534;2023-08-20T12:35:36;25.00;1.00
53802;DHT22;39709;53.334;6.534;2023-08-20T12:38:02;25.00;1.00
53802;DHT22;39709;53.334;6.534;2023-08-20T12:40:29;25.10;1.00
53802;DHT22;39709;53.334;6.534;2023-08-20T12:42:54;25.10;1.00
53802;DHT22;39709;53.334;6.534;2023-08-20T12:45:20;25.00;1.00
53802;DHT22;39709;53.334;6.534;2023-08-20T12:47:46;25.20;6.00
53802;DHT22;39709;53.334;6.534;2023-08-20T12:50:12;25.10;1.00
53802;DHT22;39709;53.334;6.534;2023-08-20T12:52:40;25.10;1.00
53802;DHT22;39709;53.334;6.534;2023-08-20T12:55:05;25.30;1.10
53802;DHT22;39709;53.334;6.534;2023-08-20T12:57:34;25.00;1.00
53802;DHT22;39709;53.334;6.534;2023-08-20T13:00:02;24.70;1.00
53802;DHT22;39709;53.334;6.534;2023-08-20T13:02:32;24.70;1.00
53802;DHT22;39709;53.334;6.534;2023-08-20T13:04:58;24.80;8.80
53802;DHT22;39709;53.334;6.534;2023-08-20T13:07:24;25.00;9.90
53802;DHT22;39709;53.334;6.534;2023-08-20T13:09:50;25.20;9.50
53802;DHT22;39709;53.334;6.534;2023-08-20T13:12:18;25.30;1.00
53802;DHT22;39709;53.334;6.534;2023-08-20T13:14:48;25.40;1.00
53802;DHT22;39709;53.334;6.534;2023-08-20T13:17:14;25.50;1.00
53802;DHT22;39709;53.334;6.534;2023-08-20T13:19:39;25.30;1.00
53802;DHT22;39709;53.334;6.534;2023-08-20T13:22:05;25.40;1.00
53802;DHT22;39709;53.334;6.534;2023-08-20T13:24:31;25.50;1.00
53802;DHT22;39709;53.334;6.534;2023-08-20T13:26:57;25.50;1.00
53802;DHT22;39709;53.334;6.534;2023-08-20T13:29:22;25.50;1.00
53802;DHT22;39709;53.334;6.534;2023-08-20T13:31:48;25.50;1.00
53802;DHT22;39709;53.334;6.534;2023-08-20T13:34:14;25.50;1.00
53802;DHT22;39709;53.334;6.534;2023-08-20T13:36:39;25.20;1.00
53802;DHT22;39709;53.334;6.534;2023-08-20T13:39:05;24.90;1.00
53802;DHT22;39709;53.334;6.534;2023-08-20T13:41:31;24.70;1.00
53802;DHT22;39709;53.334;6.534;2023-08-20T13:43:57;24.80;1.00
53802;DHT22;39709;53.334;6.534;2023-08-20T13:46:22;24.90;1.00
53802;DHT22;39709;53.334;6.534;2023-08-20T13:48:48;25.10;1.00
53802;DHT22;39709;53.334;6.534;2023-08-20T13:51:14;25.30;1.00
53802;DHT22;39709;53.334;6.534;2023-08-20T13:53:39;25.50;1.00
53802;DHT22;39709;53.334;6.534;2023-08-20T13:56:05;25.70;1.00
53802;DHT22;39709;53.334;6.534;2023-08-20T13:58:31;25.40;1.00
53802;DHT22;39709;53.334;6.534;2023-08-20T14:00:56;25.30;1.00
53802;DHT22;39709;53.334;6.534;2023-08-20T14:03:22;25.50;1.00
53802;DHT22;39709;53.334;6.534;2023-08-20T14:05:48;25.30;1.00
53802;DHT22;39709;53.334;6.534;2023-08-20T14:08:13;25.40;1.00
53802;DHT22;39709;53.334;6.534;2023-08-20T14:10:39;25.20;1.00
53802;DHT22;39709;53.334;6.534;2023-08-20T14:13:04;25.20;28.50
53802;DHT22;39709;53.334;6.534;2023-08-20T14:15:30;25.00;35.10
53802;DHT22;39709;53.334;6.534;2023-08-20T14:17:56;24.60;41.60
53802;DHT22;39709;53.334;6.534;2023-08-20T14:20:21;24.40;49.90
53802;DHT22;39709;53.334;6.534;2023-08-20T14:22:47;24.40;49.60
53802;DHT22;39709;53.334;6.534;2023-08-20T14:25:13;24.20;49.80
53802;DHT22;39709;53.334;6.534;2023-08-20T14:27:38;24.20;51.90
53802;DHT22;39709;53.334;6.534;2023-08-20T14:30:06;24.30;52.50
53802;DHT22;39709;53.334;6.534;2023-08-20T14:32:33;24.20;52.70
53802;DHT22;39709;53.334;6.534;2023-08-20T14:34:59;24.20;56.10
53802;DHT22;39709;53.334;6.534;2023-08-20T14:37:24;24.10;60.80
53802;DHT22;39709;53.334;6.534;2023-08-20T14:39:50;24.00;58.50
53802;DHT22;39709;53.334;6.534;2023-08-20T14:42:16;23.90;60.90
53802;DHT22;39709;53.334;6.534;2023-08-20T14:44:41;23.70;65.50
53802;DHT22;39709;53.334;6.534;2023-08-20T14:47:07;23.70;65.60
53802;DHT22;39709;53.334;6.534;2023-08-20T14:49:33;23.90;65.10
53802;DHT22;39709;53.334;6.534;2023-08-20T14:51:58;24.10;67.40
53802;DHT22;39709;53.334;6.534;2023-08-20T14:54:25;23.90;61.50
53802;DHT22;39709;53.334;6.534;2023-08-20T14:56:51;23.80;62.80
53802;DHT22;39709;53.334;6.534;2023-08-20T14:59:16;23.60;65.10
53802;DHT22;39709;53.334;6.534;2023-08-20T15:01:42;23.60;68.10
53802;DHT22;39709;53.334;6.534;2023-08-20T15:04:08;23.50;69.50
53802;DHT22;39709;53.334;6.534;2023-08-20T15:06:33;23.70;72.00
53802;DHT22;39709;53.334;6.534;2023-08-20T15:08:59;24.10;73.60
53802;DHT22;39709;53.334;6.534;2023-08-20T15:11:25;24.40;59.20
53802;DHT22;39709;53.334;6.534;2023-08-20T15:13:50;24.30;57.30
53802;DHT22;39709;53.334;6.534;2023-08-20T15:16:17;23.90;66.80
53802;DHT22;39709;53.334;6.534;2023-08-20T15:18:43;23.70;73.70
53802;DHT22;39709;53.334;6.534;2023-08-20T15:21:08;23.60;77.10
53802;DHT22;39709;53.334;6.534;2023-08-20T15:23:36;23.30;77.50
53802;DHT22;39709;53.334;6.534;2023-08-20T15:26:01;23.40;77.40
53802;DHT22;39709;53.334;6.534;2023-08-20T15:28:28;23.70;73.60
53802;DHT22;39709;53.334;6.534;2023-08-20T15:30:56;23.80;69.40
53802;DHT22;39709;53.334;6.534;2023-08-20T15:33:22;23.50;68.40
53802;DHT22;39709;53.334;6.534;2023-08-20T15:35:48;23.30;73.80
53802;DHT22;39709;53.334;6.534;2023-08-20T15:38:13;23.40;79.20
53802;DHT22;39709;53.334;6.534;2023-08-20T15:40:39;23.50;70.40
53802;DHT22;39709;53.334;6.534;2023-08-20T15:43:05;23.50;71.10
53802;DHT22;39709;53.334;6.534;2023-08-20T15:45:31;23.40;74.20
53802;DHT22;39709;53.334;6.534;2023-08-20T15:47:57;23.70;73.60